Time;durP1;ratioP1;P1;durP2;ratioP2;P2;SDS_P1;SDS_P2;PMS_P1;PMS_P2;Temp;Humidity;BMP_temperature;BMP_pressure;BME280_temperature;BME280_humidity;BME280_pressure;Samples;Min_cycle;Max_cycle;Signal;HPM_P1;HPM_P2
2022/08/16 00:00:59;;;;;;;10.03;6.30;;;18.10;99.90;;;;;;5017937;28;20201;-84
2022/08/16 00:03:25;;;;;;;6.03;4.13;;;18.10;99.90;;;;;;5020473;28;20268;-84
2022/08/16 00:05:51;;;;;;;5.27;4.37;;;18.20;99.90;;;;;;5017967;28;20174;-85
2022/08/16 00:08:17;;;;;;;6.10;5.50;;;18.20;99.90;;;;;;5017830;28;20471;-84
2022/08/16 00:10:43;;;;;;;8.30;5.33;;;18.10;99.90;;;;;;5018901;28;20202;-84
2022/08/16 00:13:09;;;;;;;5.53;4.70;;;18.10;99.90;;;;;;5017845;28;20417;-82
2022/08/16 00:15:41;;;;;;;7.20;5.20;;;18.10;99.90;;;;;;5017719;28;20185;-83
2022/08/16 00:18:11;;;;;;;6.10;5.17;;;18.10;99.90;;;;;;5016758;28;20980;-84
2022/08/16 00:20:38;;;;;;;7.70;4.90;;;18.00;99.90;;;;;;5018051;28;20876;-84
2022/08/16 00:23:06;;;;;;;7.80;4.23;;;18.00;99.90;;;;;;5017413;28;20455;-83
2022/08/16 00:25:31;;;;;;;5.87;5.07;;;17.90;99.90;;;;;;5018235;28;20952;-83
2022/08/16 00:27:57;;;;;;;7.37;6.30;;;17.90;99.90;;;;;;5018263;28;20444;-84
2022/08/16 00:30:23;;;;;;;4.50;4.10;;;17.90;99.90;;;;;;5037174;28;20632;-83
2022/08/16 00:32:52;;;;;;;5.90;5.10;;;17.80;99.90;;;;;;5036871;28;20173;-83
2022/08/16 00:35:22;;;;;;;7.83;5.33;;;17.70;99.90;;;;;;5026709;28;20424;-84
2022/08/16 00:37:48;;;;;;;8.30;5.00;;;17.60;99.90;;;;;;5015709;28;20433;-84
2022/08/16 00:40:20;;;;;;;5.83;5.27;;;17.60;99.90;;;;;;5017256;28;20448;-83
2022/08/16 00:42:45;;;;;;;5.80;5.20;;;17.60;99.90;;;;;;5017846;28;20964;-84
2022/08/16 00:45:33;;;;;;;6.00;5.07;;;17.70;99.90;;;;;;5020229;28;20412;-83
2022/08/16 00:48:12;;;;;;;8.63;5.10;;;17.60;99.90;;;;;;5015907;28;20268;-83
2022/08/16 00:50:39;;;;;;;7.60;5.50;;;17.70;99.90;;;;;;5017450;28;20468;-83
2022/08/16 00:53:07;;;;;;;6.03;5.40;;;17.60;99.90;;;;;;5020975;28;20468;-83
2022/08/16 00:55:35;;;;;;;6.63;4.90;;;17.50;99.90;;;;;;5016706;28;21458;-83
2022/08/16 00:58:02;;;;;;;8.20;4.73;;;17.50;99.90;;;;;;5018240;28;20460;-84
2022/08/16 01:00:30;;;;;;;9.63;5.20;;;17.50;99.90;;;;;;5019581;28;20437;-84
2022/08/16 01:02:59;;;;;;;8.23;6.10;;;17.40;99.90;;;;;;5021868;28;20452;-83
2022/08/16 01:05:26;;;;;;;6.80;5.90;;;17.50;99.90;;;;;;5020833;28;20764;-83
2022/08/16 01:07:52;;;;;;;6.00;5.43;;;17.50;99.90;;;;;;5020627;28;20913;-84
2022/08/16 01:10:24;;;;;;;6.47;4.73;;;17.40;99.90;;;;;;5021670;28;20835;-84
2022/08/16 01:12:49;;;;;;;6.33;5.73;;;17.50;99.90;;;;;;5022014;28;20472;-84
2022/08/16 01:15:15;;;;;;;6.00;5.07;;;17.50;99.90;;;;;;5021935;28;20833;-83
2022/08/16 01:17:43;;;;;;;6.93;5.43;;;17.40;99.90;;;;;;5018560;28;20177;-84
2022/08/16 01:20:13;;;;;;;6.80;5.00;;;17.30;99.90;;;;;;5021101;28;20457;-83
2022/08/16 01:23:06;;;;;;;11.63;6.13;;;17.20;99.90;;;;;;5022749;28;20472;-83
2022/08/16 01:25:38;;;;;;;6.33;5.70;;;17.10;99.90;;;;;;5020763;28;21016;-83
2022/08/16 01:28:08;;;;;;;8.23;6.33;;;17.00;99.90;;;;;;5006690;28;21015;-83
2022/08/16 01:30:41;;;;;;;7.03;6.10;;;17.00;99.90;;;;;;5021985;28;20471;-84
2022/08/16 01:33:08;;;;;;;6.90;5.73;;;16.90;99.90;;;;;;5021072;28;20440;-83
2022/08/16 01:35:55;;;;;;;20.60;7.23;;;16.90;99.90;;;;;;5019658;28;20425;-84
2022/08/16 01:38:36;;;;;;;14.10;6.87;;;16.90;99.90;;;;;;5005913;28;20502;-83
2022/08/16 01:41:08;;;;;;;14.73;6.93;;;16.80;99.90;;;;;;5020296;28;20462;-83
2022/08/16 01:43:36;;;;;;;6.30;5.67;;;16.70;99.90;;;;;;5022106;28;21707;-84
2022/08/16 01:46:05;;;;;;;7.83;5.83;;;16.60;99.90;;;;;;5018638;28;20431;-84
2022/08/16 01:48:31;;;;;;;12.67;6.20;;;16.50;99.90;;;;;;5022628;28;20607;-83
2022/08/16 01:50:58;;;;;;;8.53;6.13;;;16.40;99.90;;;;;;5008977;28;20489;-83
2022/08/16 01:53:25;;;;;;;7.00;6.30;;;16.40;99.90;;;;;;5021763;28;20523;-83
2022/08/16 01:55:51;;;;;;;13.33;7.60;;;16.30;99.90;;;;;;5021267;28;20523;-83
2022/08/16 01:58:17;;;;;;;8.23;6.77;;;16.20;99.90;;;;;;5021780;28;20554;-84
2022/08/16 02:00:44;;;;;;;9.30;7.03;;;16.10;99.90;;;;;;5019028;28;20251;-84
2022/08/16 02:03:09;;;;;;;8.73;6.83;;;16.10;99.90;;;;;;5019539;28;20464;-84
2022/08/16 02:05:35;;;;;;;7.07;6.20;;;16.00;99.90;;;;;;5022682;28;20772;-83
2022/08/16 02:08:02;;;;;;;8.50;7.30;;;16.00;99.90;;;;;;5022291;28;20835;-83
2022/08/16 02:10:27;;;;;;;8.47;7.63;;;15.90;99.90;;;;;;5021209;28;20194;-83
2022/08/16 02:12:53;;;;;;;6.90;6.13;;;15.90;99.90;;;;;;5028798;28;21014;-83
2022/08/16 02:15:23;;;;;;;8.17;6.97;;;15.90;99.90;;;;;;5017421;28;20193;-83
2022/08/16 02:17:48;;;;;;;12.80;7.30;;;15.90;99.90;;;;;;5017742;28;21061;-83
2022/08/16 02:20:15;;;;;;;8.03;7.23;;;15.90;99.90;;;;;;5019732;28;20471;-83
2022/08/16 02:22:40;;;;;;;11.20;7.13;;;15.80;99.90;;;;;;5023208;28;20204;-84
2022/08/16 02:25:12;;;;;;;12.23;6.40;;;15.80;99.90;;;;;;5023951;28;20430;-82
2022/08/16 02:27:39;;;;;;;8.30;6.93;;;15.90;99.90;;;;;;5020209;28;20187;-83
2022/08/16 02:30:08;;;;;;;10.83;6.60;;;15.80;99.90;;;;;;5020582;28;20812;-83
2022/08/16 02:32:34;;;;;;;9.97;7.00;;;15.80;99.90;;;;;;5022292;28;20417;-84
2022/08/16 02:34:59;;;;;;;7.97;6.77;;;15.80;99.90;;;;;;5019194;28;20448;-84
2022/08/16 02:37:25;;;;;;;10.07;7.50;;;15.80;99.90;;;;;;5021132;28;20189;-83
2022/08/16 02:39:50;;;;;;;9.40;7.63;;;15.80;99.90;;;;;;5024702;28;20789;-83
2022/08/16 02:42:18;;;;;;;9.13;6.90;;;15.80;99.90;;;;;;5020941;28;20206;-84
2022/08/16 02:44:43;;;;;;;12.40;6.50;;;15.80;99.90;;;;;;5020296;28;20193;-83
2022/08/16 02:47:09;;;;;;;14.40;7.10;;;15.80;99.90;;;;;;5020933;28;20767;-83
2022/08/16 02:49:35;;;;;;;9.27;7.23;;;15.90;99.90;;;;;;5021321;28;20737;-84
2022/08/16 02:52:00;;;;;;;11.43;7.03;;;15.80;99.90;;;;;;5020878;28;20766;-83
2022/08/16 02:54:26;;;;;;;12.30;6.67;;;15.90;99.90;;;;;;5025167;28;20500;-82
2022/08/16 02:56:51;;;;;;;8.17;6.90;;;15.90;99.90;;;;;;5023716;28;20194;-82
2022/08/16 02:59:17;;;;;;;11.37;7.07;;;15.90;99.90;;;;;;5016042;28;20198;-85
2022/08/16 03:01:42;;;;;;;9.83;8.20;;;15.90;99.90;;;;;;5020422;28;20200;-84
2022/08/16 03:04:09;;;;;;;9.47;6.97;;;15.90;99.90;;;;;;5021334;28;20262;-83
2022/08/16 03:06:34;;;;;;;9.47;6.53;;;16.00;99.90;;;;;;5020918;28;20182;-84
2022/08/16 03:09:00;;;;;;;11.03;6.40;;;15.90;99.90;;;;;;5019840;28;20421;-83
2022/08/16 03:11:27;;;;;;;9.37;7.07;;;15.80;99.90;;;;;;5021167;28;20178;-83
2022/08/16 03:13:53;;;;;;;7.77;6.77;;;15.70;99.90;;;;;;5019837;28;20178;-83
2022/08/16 03:16:21;;;;;;;7.80;7.00;;;15.60;99.90;;;;;;5021132;28;20414;-83
2022/08/16 03:18:46;;;;;;;10.37;7.33;;;15.60;99.90;;;;;;5020757;28;20405;-84
2022/08/16 03:21:12;;;;;;;10.20;7.77;;;15.60;99.90;;;;;;5018501;28;20555;-84
2022/08/16 03:23:38;;;;;;;11.50;7.90;;;15.60;99.90;;;;;;5021045;28;20190;-83
2022/08/16 03:26:04;;;;;;;10.83;7.60;;;15.70;99.90;;;;;;5022184;28;20820;-84
2022/08/16 03:28:29;;;;;;;13.23;7.33;;;15.70;99.90;;;;;;5019508;28;20178;-84
2022/08/16 03:30:55;;;;;;;12.83;8.20;;;15.70;99.90;;;;;;5020307;28;20719;-83
2022/08/16 03:33:21;;;;;;;9.40;8.00;;;15.70;99.90;;;;;;5019019;28;20418;-84
2022/08/16 03:35:46;;;;;;;9.10;7.53;;;15.70;99.90;;;;;;5017731;28;20599;-84
2022/08/16 03:38:14;;;;;;;8.77;7.87;;;15.60;99.90;;;;;;5018381;28;20182;-84
2022/08/16 03:40:41;;;;;;;10.40;9.20;;;15.70;99.90;;;;;;5025383;28;20189;-84
2022/08/16 03:43:09;;;;;;;12.07;8.10;;;15.70;99.90;;;;;;5017389;28;20847;-83
2022/08/16 03:45:36;;;;;;;10.87;7.30;;;15.80;99.90;;;;;;5019867;28;20443;-83
2022/08/16 03:48:03;;;;;;;10.97;8.03;;;15.80;99.90;;;;;;5017380;28;20425;-84
2022/08/16 03:50:29;;;;;;;9.90;8.27;;;15.70;99.90;;;;;;5019080;28;20543;-83
2022/08/16 03:52:55;;;;;;;11.47;8.30;;;15.60;99.90;;;;;;5021845;28;20534;-84
2022/08/16 03:55:21;;;;;;;9.50;8.50;;;15.60;99.90;;;;;;5021834;28;20934;-83
2022/08/16 03:57:48;;;;;;;11.73;9.37;;;15.60;99.90;;;;;;5020934;28;20417;-83
2022/08/16 04:00:16;;;;;;;10.30;9.30;;;15.50;99.90;;;;;;5016272;28;20383;-83
2022/08/16 04:02:43;;;;;;;16.33;9.00;;;15.50;99.90;;;;;;5018479;28;20434;-84
2022/08/16 04:05:10;;;;;;;11.70;8.10;;;15.50;99.90;;;;;;5019221;28;20182;-84
2022/08/16 04:07:36;;;;;;;10.20;7.50;;;15.50;99.90;;;;;;5003376;28;20455;-83
2022/08/16 04:10:04;;;;;;;9.40;8.40;;;15.50;99.90;;;;;;5023035;28;20437;-83
2022/08/16 04:12:30;;;;;;;11.37;8.00;;;15.50;99.90;;;;;;5018928;28;20190;-83
2022/08/16 04:14:55;;;;;;;11.70;10.10;;;15.50;99.90;;;;;;5016577;28;20422;-83
2022/08/16 04:17:21;;;;;;;9.43;7.93;;;15.40;99.90;;;;;;5018135;28;20273;-83
2022/08/16 04:19:47;;;;;;;12.03;9.57;;;15.40;99.90;;;;;;5017758;28;20222;-84
2022/08/16 04:22:13;;;;;;;10.77;8.60;;;15.40;99.90;;;;;;5019510;28;20664;-83
2022/08/16 04:24:38;;;;;;;9.70;8.40;;;15.40;99.90;;;;;;5020896;28;20185;-84
2022/08/16 04:27:04;;;;;;;10.77;9.67;;;15.40;99.90;;;;;;5020040;28;20425;-83
2022/08/16 04:29:30;;;;;;;10.10;9.00;;;15.50;99.90;;;;;;5017075;28;20204;-84
2022/08/16 04:31:56;;;;;;;11.13;8.73;;;15.60;99.90;;;;;;5018460;28;20443;-83
2022/08/16 04:34:23;;;;;;;11.00;8.80;;;15.80;99.90;;;;;;5016487;28;20225;-83
2022/08/16 04:36:49;;;;;;;8.70;7.80;;;15.80;99.90;;;;;;5019867;28;20408;-83
2022/08/16 04:39:14;;;;;;;9.60;7.00;;;15.90;99.90;;;;;;5020730;28;20439;-83
2022/08/16 04:41:40;;;;;;;9.83;8.10;;;16.10;99.90;;;;;;5018997;28;20424;-83
2022/08/16 04:44:07;;;;;;;11.07;8.00;;;16.50;99.90;;;;;;5017236;28;20198;-84
2022/08/16 04:46:33;;;;;;;8.90;8.00;;;17.00;99.90;;;;;;5017322;28;20412;-84
2022/08/16 04:48:58;;;;;;;10.50;8.70;;;18.00;99.90;;;;;;5016083;28;20209;-84
2022/08/16 04:51:24;;;;;;;8.97;7.90;;;18.00;99.90;;;;;;5021162;28;20223;-83
2022/08/16 04:53:50;;;;;;;10.33;7.40;;;18.60;99.90;;;;;;5019211;28;20208;-83
2022/08/16 04:56:18;;;;;;;9.83;7.60;;;19.30;99.90;;;;;;5018597;28;20456;-84
2022/08/16 04:58:44;;;;;;;12.60;8.67;;;19.90;99.90;;;;;;5019064;28;20475;-83
2022/08/16 05:01:10;;;;;;;9.53;7.10;;;20.60;99.90;;;;;;5017563;28;20537;-82
2022/08/16 05:03:35;;;;;;;7.97;7.13;;;21.20;99.90;;;;;;5018773;28;20863;-81
2022/08/16 05:06:01;;;;;;;7.10;6.40;;;21.70;99.90;;;;;;5020521;28;20177;-82
2022/08/16 05:08:27;;;;;;;9.37;7.23;;;22.00;99.90;;;;;;5017650;28;20210;-81
2022/08/16 05:10:54;;;;;;;8.77;7.70;;;22.50;99.90;;;;;;5020913;28;20200;-84
2022/08/16 05:13:20;;;;;;;9.63;7.83;;;22.70;99.90;;;;;;5021821;28;20421;-83
2022/08/16 05:15:46;;;;;;;7.73;6.87;;;22.70;99.90;;;;;;5015610;28;20503;-84
2022/08/16 05:18:14;;;;;;;8.57;7.63;;;22.60;99.90;;;;;;5019381;28;20447;-83
2022/08/16 05:20:39;;;;;;;11.60;7.23;;;22.90;99.90;;;;;;5019236;28;21280;-83
2022/08/16 05:23:05;;;;;;;8.73;7.63;;;23.80;99.90;;;;;;5018318;28;20532;-84
2022/08/16 05:25:30;;;;;;;9.13;7.97;;;24.40;99.90;;;;;;5018113;28;20215;-84
2022/08/16 05:27:58;;;;;;;8.13;7.33;;;24.20;99.90;;;;;;5020714;28;20173;-84
2022/08/16 05:30:24;;;;;;;9.40;7.10;;;24.40;99.90;;;;;;5018370;28;20195;-84
2022/08/16 05:32:49;;;;;;;8.70;7.17;;;25.20;99.90;;;;;;5018054;28;20429;-84
2022/08/16 05:35:15;;;;;;;8.37;7.30;;;26.00;99.90;;;;;;5015586;28;20428;-83
2022/08/16 05:37:41;;;;;;;10.67;7.80;;;25.80;99.90;;;;;;5018485;28;20185;-84
2022/08/16 05:40:09;;;;;;;15.13;8.97;;;25.60;99.90;;;;;;5022923;28;20273;-84
2022/08/16 05:42:34;;;;;;;9.57;8.47;;;25.20;99.90;;;;;;5018117;28;20547;-83
2022/08/16 05:45:00;;;;;;;14.37;7.40;;;24.00;99.90;;;;;;5016057;28;20445;-83
2022/08/16 05:47:26;;;;;;;9.60;8.67;;;22.00;99.90;;;;;;5019892;28;20197;-83
2022/08/16 05:49:52;;;;;;;14.40;9.97;;;20.80;99.90;;;;;;5021006;28;20209;-83
2022/08/16 05:52:18;;;;;;;12.57;9.07;;;20.20;99.90;;;;;;5025642;28;20194;-83
2022/08/16 05:54:43;;;;;;;12.90;10.07;;;20.00;99.90;;;;;;5022389;28;20437;-84
2022/08/16 05:57:10;;;;;;;14.90;9.73;;;19.70;99.90;;;;;;5022624;28;20425;-83
2022/08/16 05:59:35;;;;;;;12.00;10.37;;;19.40;99.90;;;;;;5017250;28;20202;-84
2022/08/16 06:02:02;;;;;;;13.87;10.17;;;19.20;99.90;;;;;;5018767;28;20524;-83
2022/08/16 06:04:28;;;;;;;11.50;9.10;;;19.20;99.90;;;;;;5017166;28;20200;-84
2022/08/16 06:06:54;;;;;;;10.47;9.43;;;19.50;99.90;;;;;;5006061;28;20421;-84
2022/08/16 06:09:19;;;;;;;13.97;8.50;;;21.10;99.90;;;;;;5021648;28;20277;-84
2022/08/16 06:11:45;;;;;;;10.53;9.43;;;23.40;99.90;;;;;;5018349;28;20258;-83
2022/08/16 06:14:11;;;;;;;12.23;8.30;;;25.70;99.90;;;;;;5019472;28;20186;-83
2022/08/16 06:16:37;;;;;;;10.33;8.43;;;27.80;99.90;;;;;;5015814;28;20205;-83
2022/08/16 06:19:03;;;;;;;7.83;7.13;;;31.00;99.90;;;;;;5018397;28;20184;-80
2022/08/16 06:21:28;;;;;;;12.10;8.70;;;31.00;99.90;;;;;;5017852;28;20442;-84
2022/08/16 06:23:54;;;;;;;9.20;8.20;;;32.80;99.90;;;;;;5021550;28;21130;-84
2022/08/16 06:26:20;;;;;;;9.70;7.33;;;34.70;93.30;;;;;;5021455;28;20189;-83
2022/08/16 06:28:46;;;;;;;7.63;6.87;;;35.30;88.20;;;;;;5021760;28;20668;-84
2022/08/16 06:31:13;;;;;;;7.97;7.23;;;36.40;83.00;;;;;;5020832;28;20463;-84
2022/08/16 06:33:40;;;;;;;8.03;7.20;;;37.90;73.30;;;;;;5017711;28;20188;-83
2022/08/16 06:36:08;;;;;;;8.33;7.53;;;38.80;68.00;;;;;;5018560;28;20815;-85
2022/08/16 06:38:34;;;;;;;9.27;8.43;;;40.20;60.60;;;;;;5018637;28;20439;-85
2022/08/16 06:41:05;;;;;;;10.30;9.40;;;40.10;56.80;;;;;;5022305;28;20470;-84
2022/08/16 06:43:32;;;;;;;9.40;8.60;;;39.80;54.90;;;;;;5019423;28;20546;-84
2022/08/16 06:45:59;;;;;;;11.67;10.57;;;38.60;53.90;;;;;;5017471;28;20488;-83
2022/08/16 06:48:25;;;;;;;12.13;11.27;;;37.10;56.60;;;;;;5016785;28;20429;-82
2022/08/16 06:50:51;;;;;;;13.10;12.00;;;35.80;57.20;;;;;;5018976;28;20806;-84
2022/08/16 06:53:17;;;;;;;12.47;11.37;;;34.30;59.90;;;;;;5019916;28;20180;-84
2022/08/16 06:55:43;;;;;;;11.33;10.17;;;33.30;64.40;;;;;;5020143;28;20426;-84
2022/08/16 06:58:09;;;;;;;9.43;8.70;;;32.60;68.00;;;;;;5020935;28;20429;-84
2022/08/16 07:00:35;;;;;;;10.70;9.70;;;32.30;70.30;;;;;;5020128;28;20504;-84
2022/08/16 07:03:00;;;;;;;11.63;9.43;;;31.30;74.20;;;;;;5017039;28;20454;-83
2022/08/16 07:05:26;;;;;;;9.90;8.77;;;30.90;78.00;;;;;;5016261;28;20527;-84
2022/08/16 07:07:51;;;;;;;9.47;8.57;;;30.50;81.20;;;;;;5016094;28;20178;-83
2022/08/16 07:10:18;;;;;;;10.00;9.03;;;29.80;83.30;;;;;;5017123;28;20204;-83
2022/08/16 07:12:44;;;;;;;9.50;8.40;;;29.20;87.50;;;;;;5020218;28;20197;-83
2022/08/16 07:15:10;;;;;;;9.53;7.93;;;29.90;90.50;;;;;;5020830;28;20539;-82
2022/08/16 07:17:36;;;;;;;8.70;7.80;;;31.20;88.20;;;;;;5014991;28;20708;-83
2022/08/16 07:20:04;;;;;;;9.53;8.43;;;33.20;80.80;;;;;;5018281;28;20530;-83
2022/08/16 07:22:30;;;;;;;13.63;8.33;;;35.30;74.30;;;;;;5016490;28;20455;-84
2022/08/16 07:24:55;;;;;;;11.37;9.30;;;37.20;69.00;;;;;;5017662;28;20809;-83
2022/08/16 07:27:21;;;;;;;13.83;11.00;;;38.80;64.00;;;;;;5019082;28;20236;-84
2022/08/16 07:29:47;;;;;;;11.23;10.20;;;38.40;58.50;;;;;;5020056;28;20548;-84
2022/08/16 07:32:12;;;;;;;10.40;9.30;;;36.50;61.10;;;;;;5022402;28;20171;-84
2022/08/16 07:34:38;;;;;;;11.23;9.60;;;35.60;63.70;;;;;;5018243;28;20180;-82
2022/08/16 07:37:07;;;;;;;10.00;9.10;;;34.70;66.00;;;;;;5019506;28;20184;-84
2022/08/16 07:39:33;;;;;;;11.23;9.30;;;34.20;68.30;;;;;;5022618;28;20604;-84
2022/08/16 07:41:58;;;;;;;11.20;8.60;;;33.90;68.60;;;;;;5015405;28;20458;-84
2022/08/16 07:44:24;;;;;;;9.30;8.60;;;33.70;70.00;;;;;;5018019;28;20188;-85
2022/08/16 07:46:49;;;;;;;11.40;8.73;;;34.40;71.00;;;;;;5017106;28;20256;-85
2022/08/16 07:49:15;;;;;;;9.80;8.90;;;35.90;67.60;;;;;;5015059;28;20205;-84
2022/08/16 07:51:41;;;;;;;14.33;9.33;;;37.30;62.30;;;;;;5014101;28;20188;-85
2022/08/16 07:54:08;;;;;;;10.20;9.13;;;37.30;61.00;;;;;;5017775;28;20180;-84
2022/08/16 07:56:34;;;;;;;10.40;9.37;;;37.90;58.30;;;;;;5017559;28;20176;-85
2022/08/16 07:59:00;;;;;;;10.90;9.77;;;38.20;56.90;;;;;;5012997;28;20451;-85
2022/08/16 08:01:27;;;;;;;9.37;8.57;;;38.20;57.10;;;;;;5018547;28;20630;-83
2022/08/16 08:03:52;;;;;;;10.63;9.80;;;39.30;56.20;;;;;;5020238;28;20195;-84
2022/08/16 08:06:21;;;;;;;11.83;10.90;;;41.10;51.20;;;;;;5017435;28;20440;-84
2022/08/16 08:08:48;;;;;;;10.60;9.90;;;41.90;50.40;;;;;;5012462;28;20232;-85
2022/08/16 08:11:14;;;;;;;10.50;9.80;;;;;;;;;;5016647;28;20547;-84
2022/08/16 08:13:39;;;;;;;13.10;12.03;;;41.10;49.10;;;;;;5015189;28;20501;-84
2022/08/16 08:16:05;;;;;;;12.63;11.73;;;40.70;49.50;;;;;;5015612;28;20428;-84
2022/08/16 08:18:31;;;;;;;11.83;11.03;;;39.80;50.00;;;;;;5017702;28;20193;-84
2022/08/16 08:20:57;;;;;;;13.00;11.80;;;;;;;;;;5020911;28;20220;-84
2022/08/16 08:23:24;;;;;;;12.83;11.70;;;36.10;53.30;;;;;;5015972;28;20698;-84
2022/08/16 08:25:49;;;;;;;11.17;10.27;;;35.40;56.40;;;;;;5015141;28;20518;-85
2022/08/16 08:28:16;;;;;;;12.40;11.20;;;35.40;57.40;;;;;;5016513;28;20412;-84
2022/08/16 08:30:41;;;;;;;11.23;10.23;;;36.20;57.00;;;;;;5015854;28;20479;-84
2022/08/16 08:33:07;;;;;;;9.60;8.90;;;35.90;55.10;;;;;;5017937;28;20421;-82
2022/08/16 08:35:34;;;;;;;10.67;9.63;;;35.10;56.90;;;;;;5015476;28;20540;-83
2022/08/16 08:37:59;;;;;;;11.50;10.47;;;35.00;56.40;;;;;;5014645;28;20598;-83
2022/08/16 08:40:27;;;;;;;10.00;9.20;;;34.50;57.00;;;;;;5017883;28;20441;-84
2022/08/16 08:42:58;;;;;;;10.40;9.63;;;33.40;57.30;;;;;;5018320;28;20532;-84
2022/08/16 08:45:23;;;;;;;10.77;8.00;;;33.90;58.60;;;;;;5019091;28;20496;-84
2022/08/16 08:47:49;;;;;;;15.43;8.97;;;33.90;59.50;;;;;;5018140;28;20472;-83
2022/08/16 08:50:16;;;;;;;9.97;9.00;;;35.10;57.50;;;;;;5020521;28;20282;-84
2022/08/16 08:52:42;;;;;;;7.97;7.47;;;34.60;56.40;;;;;;5016763;28;21127;-84
2022/08/16 08:55:10;;;;;;;8.90;8.23;;;35.70;58.70;;;;;;5016470;28;20415;-83
2022/08/16 08:57:38;;;;;;;11.23;10.37;;;35.80;56.60;;;;;;5015779;28;20963;-83
2022/08/16 09:00:05;;;;;;;8.90;8.00;;;32.60;59.40;;;;;;5017385;28;20842;-83
2022/08/16 09:02:30;;;;;;;7.83;7.03;;;31.20;63.90;;;;;;5021138;28;20460;-83
2022/08/16 09:04:56;;;;;;;9.90;8.23;;;30.20;71.00;;;;;;5020880;28;20421;-83
2022/08/16 09:07:21;;;;;;;10.03;8.07;;;30.00;68.90;;;;;;5014094;28;20190;-84
2022/08/16 09:09:47;;;;;;;10.20;8.47;;;30.20;67.40;;;;;;5016585;28;20612;-83
2022/08/16 09:12:13;;;;;;;11.00;8.60;;;29.90;71.00;;;;;;5014689;28;20177;-83
2022/08/16 09:14:39;;;;;;;12.20;7.77;;;29.10;74.30;;;;;;5016748;28;20459;-84
2022/08/16 09:17:05;;;;;;;9.63;7.87;;;28.70;76.30;;;;;;5017035;28;20604;-83
2022/08/16 09:19:32;;;;;;;11.27;7.77;;;28.10;77.70;;;;;;5018692;28;20291;-83
2022/08/16 09:21:58;;;;;;;7.60;6.90;;;27.80;81.90;;;;;;5008486;28;20421;-83
2022/08/16 09:24:23;;;;;;;9.30;8.23;;;27.80;83.40;;;;;;5025045;28;20495;-82
2022/08/16 09:26:49;;;;;;;9.10;7.90;;;27.70;86.00;;;;;;5028851;28;20257;-84
2022/08/16 09:29:14;;;;;;;10.43;7.77;;;27.60;85.50;;;;;;5021644;28;20251;-83
2022/08/16 09:31:41;;;;;;;8.87;8.10;;;27.40;86.30;;;;;;5022625;28;20202;-81
2022/08/16 09:34:08;;;;;;;10.40;7.17;;;27.20;86.30;;;;;;5020575;28;20656;-81
2022/08/16 09:36:33;;;;;;;10.30;8.10;;;27.30;88.70;;;;;;5024118;28;20446;-81
2022/08/16 09:39:02;;;;;;;7.50;6.27;;;28.70;85.80;;;;;;5021613;28;20437;-81
2022/08/16 09:41:27;;;;;;;7.10;6.30;;;28.90;86.70;;;;;;5024079;28;20194;-81
2022/08/16 09:43:53;;;;;;;7.90;7.10;;;30.80;79.10;;;;;;5022250;28;20455;-81
2022/08/16 09:46:19;;;;;;;7.80;7.10;;;31.10;73.00;;;;;;5021802;28;21086;-81
2022/08/16 09:48:45;;;;;;;7.57;6.77;;;30.60;73.40;;;;;;5021060;28;20623;-81
2022/08/16 09:51:12;;;;;;;9.53;8.07;;;29.60;74.80;;;;;;5022959;28;20475;-82
2022/08/16 09:53:38;;;;;;;8.17;7.27;;;30.60;74.40;;;;;;5024132;28;20635;-82
2022/08/16 09:56:15;;;;;;;7.70;7.00;;;31.90;70.60;;;;;;5023561;28;20503;-83
2022/08/16 09:58:40;;;;;;;9.43;8.43;;;32.60;68.60;;;;;;5019242;28;20909;-81
2022/08/16 10:01:06;;;;;;;9.23;8.43;;;33.80;63.50;;;;;;5018138;28;20456;-84
2022/08/16 10:03:31;;;;;;;8.70;7.90;;;33.50;62.00;;;;;;5021097;28;20210;-83
2022/08/16 10:05:57;;;;;;;9.13;8.00;;;33.00;65.70;;;;;;5020754;28;20195;-83
2022/08/16 10:08:23;;;;;;;8.80;7.90;;;33.80;62.60;;;;;;5020517;28;20610;-82
2022/08/16 10:13:33;;;;;;;9.53;8.60;;;35.00;57.90;;;;;;5019501;28;20242;-84
2022/08/16 10:15:59;;;;;;;10.43;9.53;;;34.60;58.70;;;;;;5015420;28;20447;-83
2022/08/16 10:18:26;;;;;;;10.10;9.20;;;35.20;55.50;;;;;;5021254;28;20428;-84
2022/08/16 10:20:54;;;;;;;10.63;9.63;;;35.20;55.30;;;;;;5023904;28;20476;-83
2022/08/16 10:23:20;;;;;;;10.77;9.43;;;34.30;56.90;;;;;;5023669;28;20460;-81
2022/08/16 10:25:46;;;;;;;8.90;8.30;;;32.90;58.30;;;;;;5022089;28;20441;-83
2022/08/16 10:28:13;;;;;;;9.20;8.50;;;32.10;59.70;;;;;;5021961;28;20617;-80
2022/08/16 10:30:42;;;;;;;8.63;8.03;;;31.50;59.70;;;;;;5021349;28;20532;-82
2022/08/16 10:33:09;;;;;;;8.23;7.40;;;31.00;62.40;;;;;;5021361;28;20444;-81
2022/08/16 10:35:35;;;;;;;8.70;7.90;;;30.10;65.10;;;;;;5006901;28;20429;-81
2022/08/16 10:38:00;;;;;;;10.40;8.50;;;29.20;68.90;;;;;;5022446;28;20463;-81
2022/08/16 10:40:26;;;;;;;9.80;7.50;;;28.70;72.10;;;;;;5023439;28;20191;-81
2022/08/16 10:42:52;;;;;;;8.00;7.20;;;28.40;73.30;;;;;;5024041;28;20210;-82
2022/08/16 10:45:18;;;;;;;8.90;8.00;;;28.00;75.70;;;;;;5021242;28;20272;-81
2022/08/16 10:47:44;;;;;;;8.93;6.77;;;27.30;78.20;;;;;;5020225;28;20185;-83
2022/08/16 10:50:10;;;;;;;8.80;7.90;;;27.00;81.10;;;;;;5020723;28;20448;-81
2022/08/16 10:52:35;;;;;;;12.50;7.77;;;27.50;80.80;;;;;;5022667;28;20171;-83
2022/08/16 10:55:01;;;;;;;7.67;6.93;;;27.80;78.30;;;;;;5022103;28;20440;-81
2022/08/16 10:57:27;;;;;;;10.67;6.70;;;28.20;76.80;;;;;;5021954;28;20186;-83
2022/08/16 10:59:54;;;;;;;8.13;7.33;;;28.80;76.20;;;;;;5023519;28;20241;-83
2022/08/16 11:02:21;;;;;;;7.03;6.43;;;29.20;75.80;;;;;;5018439;28;20460;-83
2022/08/16 11:04:48;;;;;;;10.30;7.20;;;29.80;72.30;;;;;;5022257;28;20918;-83
2022/08/16 11:07:13;;;;;;;11.67;7.40;;;30.10;70.80;;;;;;5021529;28;20422;-83
2022/08/16 11:09:39;;;;;;;9.03;6.97;;;30.30;70.00;;;;;;5020744;28;20542;-84
2022/08/16 11:12:06;;;;;;;8.13;6.50;;;30.30;69.80;;;;;;5021344;28;20181;-82
2022/08/16 11:14:33;;;;;;;11.03;7.07;;;30.50;69.60;;;;;;5023883;28;20515;-82
2022/08/16 11:17:02;;;;;;;7.57;6.93;;;30.80;68.90;;;;;;5020410;28;20425;-81
2022/08/16 11:19:29;;;;;;;8.60;6.57;;;30.90;67.30;;;;;;5018431;28;20469;-83
2022/08/16 11:21:55;;;;;;;7.60;6.80;;;30.80;66.40;;;;;;5023373;28;20416;-81
2022/08/16 11:24:21;;;;;;;6.93;6.30;;;30.60;68.10;;;;;;5024289;28;20431;-83
2022/08/16 11:26:47;;;;;;;7.97;6.40;;;30.40;68.50;;;;;;5021447;28;20484;-81
2022/08/16 11:29:12;;;;;;;7.37;6.67;;;30.60;65.70;;;;;;5024990;28;20450;-81
2022/08/16 11:31:38;;;;;;;8.07;7.27;;;30.60;66.50;;;;;;5021022;28;20424;-82
2022/08/16 11:34:04;;;;;;;8.50;7.80;;;30.70;67.70;;;;;;5018055;28;20187;-81
2022/08/16 11:36:30;;;;;;;7.67;6.83;;;30.80;66.00;;;;;;5020718;28;20503;-81
2022/08/16 11:38:56;;;;;;;8.13;7.43;;;30.10;66.70;;;;;;5020971;28;20197;-82
2022/08/16 11:41:22;;;;;;;8.27;7.47;;;30.10;67.40;;;;;;5021853;28;20609;-81
2022/08/16 11:43:47;;;;;;;8.67;7.10;;;29.80;65.40;;;;;;5020417;28;20457;-84
2022/08/16 11:46:16;;;;;;;8.67;7.43;;;29.60;70.20;;;;;;5021680;28;20189;-83
2022/08/16 11:48:44;;;;;;;9.37;7.00;;;29.80;69.20;;;;;;5018843;28;20216;-83
2022/08/16 11:51:10;;;;;;;7.33;6.73;;;30.00;67.90;;;;;;5016994;28;20453;-83
2022/08/16 11:53:36;;;;;;;8.97;6.77;;;30.00;68.20;;;;;;5019560;28;20424;-83
2022/08/16 11:56:03;;;;;;;11.13;7.00;;;30.40;67.60;;;;;;5021094;28;20417;-83
2022/08/16 11:58:30;;;;;;;8.00;7.27;;;31.10;67.10;;;;;;5019874;28;20270;-83
2022/08/16 12:00:57;;;;;;;9.23;6.57;;;31.60;66.00;;;;;;5020261;28;20475;-84
2022/08/16 12:03:26;;;;;;;10.67;7.30;;;32.20;61.80;;;;;;5017413;28;21048;-84
2022/08/16 12:05:52;;;;;;;9.20;7.20;;;32.30;61.40;;;;;;5018850;28;20866;-83
2022/08/16 12:08:19;;;;;;;11.43;7.03;;;31.90;61.10;;;;;;5018312;28;20438;-84
2022/08/16 12:10:46;;;;;;;7.77;7.10;;;31.90;61.40;;;;;;5016921;28;20484;-83
2022/08/16 12:13:12;;;;;;;9.03;7.00;;;31.80;60.20;;;;;;5018352;28;20425;-83
2022/08/16 12:15:39;;;;;;;7.30;6.60;;;31.50;60.00;;;;;;5019889;28;20793;-83
2022/08/16 12:18:06;;;;;;;9.67;7.57;;;30.60;59.90;;;;;;5021881;28;20441;-82
2022/08/16 12:20:35;;;;;;;7.83;6.07;;;29.60;61.50;;;;;;5015709;28;20469;-81
2022/08/16 12:23:02;;;;;;;8.30;6.37;;;29.20;64.70;;;;;;5019831;28;20467;-82
2022/08/16 12:25:29;;;;;;;7.10;6.40;;;29.50;63.70;;;;;;5018288;28;20764;-81
2022/08/16 12:27:55;;;;;;;8.20;6.80;;;29.80;63.80;;;;;;5018110;28;20432;-84
2022/08/16 12:30:27;;;;;;;7.57;6.33;;;29.70;64.00;;;;;;5023686;28;20505;-83
2022/08/16 12:32:54;;;;;;;7.10;6.20;;;29.60;62.30;;;;;;5021767;28;20188;-83
2022/08/16 12:35:20;;;;;;;13.03;7.40;;;29.80;61.90;;;;;;5016767;28;20439;-82
2022/08/16 12:37:48;;;;;;;9.67;6.47;;;30.10;61.90;;;;;;5017827;28;20428;-82
2022/08/16 12:40:19;;;;;;;7.07;5.80;;;30.30;60.80;;;;;;5017915;28;20499;-83
2022/08/16 12:42:48;;;;;;;7.23;6.50;;;30.30;60.30;;;;;;5020352;28;20973;-83